Airfield :
LOGIN :

Register | Disclaimer

   EN    FR    IT 

 










Legend :    VFR   Marginal VFR   IFR   Intensive IFR   Very Intensive IFR
Visi :
Ceiling :
>= 8 km
>= 3000ft
5 to 8 km
1000 to 3000 ft
1500m to 5 km
500 to 1000 ft
800 to 1500m
200 to 500 ft
< 800m
< 200 ft
Symbols :   Thunderstorms  Fog  Heavy snow  Heavy precipitations  Wind > 20 kt
SIGMETs :     Misc.  Thunderstorms  Icing  Turbulence  Mountain Waves  Volcanic Ashes






- Airport Elevation : 963 ft
- IATA code : TGM


LRTM - Transilvania Târgu Mureş Int.

CURRENT METAR :
  • 210500Z AUTO 00000KT //// R07////// OVC022/// ///// Q1043

EXPIRED METARs :
  • 210430Z AUTO 36005KT 7000 OVC022/// M02/M03 Q1043
  • 210400Z AUTO 28006KT 250V310 7000 BKN019/// OVC022/// M02/M03 Q1043
  • 210330Z AUTO 28005KT 7000 OVC019/// M02/M03 Q1044
  • 210300Z AUTO 25004KT 5000 BR OVC020/// M02/M02 Q1044
  • 210230Z AUTO 23004KT 4300 BR BKN021/// M02/M02 Q1044

Expired Forecast.



MET'MAP, your aeronautical weather chart ! - Copyright ORBIFLY December 2007 - Disclaimer

ORBIFLY MET'MAP TEAM :

Programming & Development : Alexandra Zaïnal
Concept & original design : Baudouin d'Aumeries
Assistance for programming : Marc-Olivier Méhu
Technical & hardware support : Manuel Goepfert

Contact : metmap@orbifly.com




SOURCES & CREDITS :

   NOAA